Time;durP1;ratioP1;P1;durP2;ratioP2;P2;SDS_P1;SDS_P2;PMS_P1;PMS_P2;Temp;Humidity;BMP_temperature;BMP_pressure;BME280_temperature;BME280_humidity;BME280_pressure;Samples;Min_cycle;Max_cycle;Signal;HPM_P1;HPM_P2
2022/12/28 00:01:14;;;;;;;;;;;;;;;18.26;46.45;101465.56;5135730;27;19930;-58
2022/12/28 00:03:40;;;;;;;;;;;;;;;18.27;46.47;101459.00;5153762;27;19972;-58
2022/12/28 00:06:06;;;;;;;;;;;;;;;18.26;46.41;101462.81;5149825;27;19923;-58
2022/12/28 00:08:31;;;;;;;;;;;;;;;18.27;46.32;101464.50;5152671;27;19938;-58
2022/12/28 00:11:00;;;;;;;;;;;;;;;18.27;46.39;101459.81;5154325;27;19923;-58
2022/12/28 00:13:35;;;;;;;;;;;;;;;18.27;46.26;101464.50;5140250;27;19924;-58
2022/12/28 00:16:09;;;;;;;;;;;;;;;18.26;46.33;101462.81;5139844;27;19930;-59
2022/12/28 00:18:35;;;;;;;;;;;;;;;18.25;46.33;101445.44;5154091;27;19946;-58
2022/12/28 00:21:00;;;;;;;;;;;;;;;18.27;46.32;101442.44;5152433;27;19923;-58
2022/12/28 00:23:26;;;;;;;;;;;;;;;18.27;46.49;101446.03;5132516;27;20000;-58
2022/12/28 00:25:52;;;;;;;;;;;;;;;18.26;46.27;101435.25;5114453;28;19932;-59
2022/12/28 00:28:17;;;;;;;;;;;;;;;18.25;46.45;101415.13;5138711;27;20902;-59
2022/12/28 00:30:43;;;;;;;;;;;;;;;18.26;46.45;101418.72;5153818;27;19971;-59
2022/12/28 00:33:08;;;;;;;;;;;;;;;18.27;46.47;101404.69;5144339;27;20291;-58
2022/12/28 00:35:34;;;;;;;;;;;;;;;18.25;46.37;101406.84;5132884;28;19923;-58
2022/12/28 00:38:00;;;;;;;;;;;;;;;18.26;46.44;101400.25;5132707;28;19927;-58
2022/12/28 00:40:25;;;;;;;;;;;;;;;18.26;46.42;101402.16;5132746;28;19923;-58
2022/12/28 00:42:51;;;;;;;;;;;;;;;18.27;46.30;101395.56;5132607;27;19923;-59
2022/12/28 00:45:17;;;;;;;;;;;;;;;18.27;46.30;101392.81;5132431;27;19923;-58
2022/12/28 00:47:42;;;;;;;;;;;;;;;18.25;46.26;101382.03;5141515;27;20385;-58
2022/12/28 00:50:08;;;;;;;;;;;;;;;18.27;46.26;101376.28;5153470;27;19923;-59
2022/12/28 00:52:34;;;;;;;;;;;;;;;18.27;46.24;101368.00;5153353;27;19923;-58
2022/12/28 00:54:59;;;;;;;;;;;;;;;18.26;46.34;101366.31;5152716;27;19937;-58
2022/12/28 00:57:25;;;;;;;;;;;;;;;18.25;46.44;101351.72;5134550;27;20375;-59
2022/12/28 00:59:50;;;;;;;;;;;;;;;18.27;46.32;101349.53;5152985;27;19923;-59
2022/12/28 01:02:16;;;;;;;;;;;;;;;18.27;46.44;101343.19;5152933;27;19927;-59
2022/12/28 01:04:42;;;;;;;;;;;;;;;18.27;46.18;101338.50;5152832;27;19927;-58
2022/12/28 01:07:07;;;;;;;;;;;;;;;18.25;46.26;101337.09;5153073;27;19923;-58
2022/12/28 01:09:33;;;;;;;;;;;;;;;18.26;46.37;101341.50;5153128;27;19935;-59
2022/12/28 01:11:58;;;;;;;;;;;;;;;18.25;46.32;101345.38;5153046;27;20127;-58
2022/12/28 01:14:24;;;;;;;;;;;;;;;18.25;46.26;101332.41;5152594;27;20305;-58
2022/12/28 01:16:49;;;;;;;;;;;;;;;18.25;46.19;101332.41;5152951;27;19976;-58
2022/12/28 01:19:18;;;;;;;;;;;;;;;18.26;46.26;101319.47;5152498;27;19930;-58
2022/12/28 01:21:46;;;;;;;;;;;;;;;18.25;46.49;101304.00;5134129;27;19930;-59
2022/12/28 01:24:11;;;;;;;;;;;;;;;18.25;46.34;101307.59;5152426;27;19930;-58
2022/12/28 01:26:37;;;;;;;;;;;;;;;18.25;46.44;101293.81;5152828;27;19927;-58
2022/12/28 01:29:02;;;;;;;;;;;;;;;18.25;46.40;101301.25;5152493;27;19949;-58
2022/12/28 01:31:28;;;;;;;;;;;;;;;18.25;46.24;101302.09;5153006;27;19949;-58
2022/12/28 01:33:54;;;;;;;;;;;;;;;18.26;46.45;101302.91;5152578;27;19933;-58
2022/12/28 01:36:21;;;;;;;;;;;;;;;18.26;46.31;101297.41;5133937;27;19958;-58
2022/12/28 01:38:47;;;;;;;;;;;;;;;18.26;46.29;101294.63;5134043;27;19927;-58
2022/12/28 01:41:14;;;;;;;;;;;;;;;18.26;46.27;101294.63;5134191;27;19933;-58
2022/12/28 01:43:41;;;;;;;;;;;;;;;18.25;46.35;101280.03;5152316;27;19927;-58
2022/12/28 01:46:08;;;;;;;;;;;;;;;18.27;46.53;101282.53;5133797;27;19927;-59
2022/12/28 01:48:34;;;;;;;;;;;;;;;18.26;46.26;101272.59;5168829;27;19968;-58
2022/12/28 01:50:59;;;;;;;;;;;;;;;18.27;46.26;101271.50;5173314;27;19927;-58
2022/12/28 01:53:25;;;;;;;;;;;;;;;18.25;46.29;101265.41;5150239;27;20294;-58
2022/12/28 01:55:50;;;;;;;;;;;;;;;18.26;46.25;101261.56;5131571;28;19930;-58
2022/12/28 01:58:17;;;;;;;;;;;;;;;18.26;46.44;101256.91;5137674;27;19923;-59
2022/12/28 02:00:43;;;;;;;;;;;;;;;18.27;46.34;101263.25;5152272;27;20323;-58
2022/12/28 02:03:10;;;;;;;;;;;;;;;18.25;46.31;101270.94;5142778;27;19934;-58
2022/12/28 02:05:37;;;;;;;;;;;;;;;18.25;46.27;101263.50;5112926;28;19924;-58
2022/12/28 02:08:07;;;;;;;;;;;;;;;18.26;46.31;101261.56;5112789;28;20323;-58
2022/12/28 02:10:34;;;;;;;;;;;;;;;18.25;46.24;101257.97;5131605;28;19924;-58
2022/12/28 02:13:10;;;;;;;;;;;;;;;18.26;46.29;101247.78;5114539;27;19924;-58
2022/12/28 02:15:36;;;;;;;;;;;;;;;18.26;46.19;101239.50;5130610;27;20397;-58
2022/12/28 02:18:01;;;;;;;;;;;;;;;18.27;46.24;101246.69;5131520;28;20284;-58
2022/12/28 02:20:30;;;;;;;;;;;;;;;18.26;46.26;101245.00;5145484;27;19937;-58
2022/12/28 02:23:08;;;;;;;;;;;;;;;18.26;46.11;101245.00;5132913;27;19971;-58
2022/12/28 02:25:54;;;;;;;;;;;;;;;18.25;46.37;101235.09;5151960;27;19963;-59
2022/12/28 02:28:39;;;;;;;;;;;;;;;18.25;46.31;101232.34;5136114;27;19958;-58
2022/12/28 02:31:07;;;;;;;;;;;;;;;18.26;46.14;101231.22;5136394;27;20435;-59
2022/12/28 02:33:35;;;;;;;;;;;;;;;18.25;46.23;101226.81;5132867;27;19938;-58
2022/12/28 02:36:03;;;;;;;;;;;;;;;18.25;46.19;101221.31;5151664;27;20330;-59
2022/12/28 02:38:32;;;;;;;;;;;;;;;18.26;46.26;101214.69;5151685;27;19927;-58
2022/12/28 02:40:59;;;;;;;;;;;;;;;18.25;46.44;101199.25;5151465;27;20104;-58
2022/12/28 02:43:24;;;;;;;;;;;;;;;18.25;46.25;101194.56;5151630;27;20313;-59
2022/12/28 02:51:34;;;;;;;;;;;;;;;18.25;46.24;101179.97;5142362;27;19934;-58
2022/12/28 02:57:25;;;;;;;;;;;;;;;18.25;46.17;101163.41;5104206;28;20395;-59
2022/12/28 02:59:54;;;;;;;;;;;;;;;18.25;46.05;101163.41;5134381;27;19938;-58
2022/12/28 03:02:23;;;;;;;;;;;;;;;18.25;46.29;101161.47;5130499;27;19982;-58
2022/12/28 03:04:54;;;;;;;;;;;;;;;18.24;46.15;101154.31;5130166;27;20275;-58
2022/12/28 03:10:12;;;;;;;;;;;;;;;18.25;46.16;101141.38;5115303;28;19981;-58
2022/12/28 03:12:40;;;;;;;;;;;;;;;18.25;46.01;101141.38;5130714;27;20766;-58
2022/12/28 03:15:07;;;;;;;;;;;;;;;18.24;46.35;101124.00;5147649;27;19976;-59
2022/12/28 03:31:24;;;;;;;;;;;;;;;18.25;46.05;101114.63;5139238;27;20329;-58
2022/12/28 03:33:51;;;;;;;;;;;;;;;18.25;46.20;101105.53;5154325;27;19923;-58
2022/12/28 03:36:22;;;;;;;;;;;;;;;18.24;46.20;101110.22;5154753;27;19965;-59
2022/12/28 03:38:53;;;;;;;;;;;;;;;18.24;46.18;101107.44;5154473;27;19980;-58
2022/12/28 03:41:21;;;;;;;;;;;;;;;18.24;46.25;101109.38;5136067;27;19987;-58
2022/12/28 03:43:49;;;;;;;;;;;;;;;18.25;46.01;101102.75;5135713;27;19962;-59
2022/12/28 03:46:32;;;;;;;;;;;;;;;18.24;46.24;101099.19;5153938;27;19934;-59
2022/12/28 03:48:58;;;;;;;;;;;;;;;18.24;46.17;101095.59;5155129;27;20435;-58
2022/12/28 03:51:23;;;;;;;;;;;;;;;18.25;46.05;101091.75;5156663;27;19935;-57
2022/12/28 03:53:49;;;;;;;;;;;;;;;18.24;45.98;101081.81;5145975;27;20298;-58
2022/12/28 03:56:17;;;;;;;;;;;;;;;18.25;46.06;101089.81;5133395;28;19923;-58
2022/12/28 03:58:42;;;;;;;;;;;;;;;18.24;46.15;101076.31;5124016;27;19934;-58
2022/12/28 04:01:08;;;;;;;;;;;;;;;18.24;46.11;101079.88;5135782;27;20085;-58
2022/12/28 04:03:34;;;;;;;;;;;;;;;18.23;45.96;101078.25;5122688;28;19934;-58
2022/12/28 04:05:59;;;;;;;;;;;;;;;18.23;46.00;101072.72;5133151;28;19932;-58
2022/12/28 04:08:25;;;;;;;;;;;;;;;18.24;46.01;101065.28;5133518;28;19924;-58
2022/12/28 04:10:51;;;;;;;;;;;;;;;18.24;46.17;101076.31;5114951;28;19983;-58
2022/12/28 04:13:16;;;;;;;;;;;;;;;18.25;45.98;101064.16;5133510;27;19924;-58
2022/12/28 04:15:42;;;;;;;;;;;;;;;18.23;45.92;101058.94;5114691;28;20272;-58
2022/12/28 04:18:07;;;;;;;;;;;;;;;18.24;45.97;101066.09;5133226;28;19930;-59
2022/12/28 04:20:33;;;;;;;;;;;;;;;18.24;46.08;101059.75;5133093;28;20307;-58
2022/12/28 04:22:58;;;;;;;;;;;;;;;18.24;45.92;101063.34;5137719;27;19923;-58
2022/12/28 04:25:24;;;;;;;;;;;;;;;18.23;46.21;101050.66;5152357;27;19934;-58
2022/12/28 04:27:50;;;;;;;;;;;;;;;18.24;45.86;101051.50;5153740;27;19923;-58
2022/12/28 04:30:15;;;;;;;;;;;;;;;18.23;45.98;101053.44;5153531;27;20352;-58
2022/12/28 04:32:41;;;;;;;;;;;;;;;18.24;46.10;101045.97;5148759;27;19976;-58
2022/12/28 04:35:06;;;;;;;;;;;;;;;18.24;45.94;101037.72;5132930;27;19946;-58
2022/12/28 04:37:35;;;;;;;;;;;;;;;18.24;46.10;101029.44;5132503;27;19927;-59
2022/12/28 04:40:00;;;;;;;;;;;;;;;18.24;45.93;101024.75;5114467;28;20007;-59
2022/12/28 04:42:26;;;;;;;;;;;;;;;18.23;45.89;101020.34;5139192;27;19993;-59
2022/12/28 04:44:51;;;;;;;;;;;;;;;18.24;46.08;101022.00;5137571;27;19923;-58
2022/12/28 04:47:17;;;;;;;;;;;;;;;18.25;46.01;101022.81;5159040;27;19923;-58
2022/12/28 04:49:42;;;;;;;;;;;;;;;18.24;46.03;101021.16;5174546;27;19931;-58
2022/12/28 04:52:08;;;;;;;;;;;;;;;18.24;46.11;101016.47;5173932;27;19927;-57
2022/12/28 04:54:34;;;;;;;;;;;;;;;18.24;45.94;101022.00;5132477;27;19924;-58
2022/12/28 04:56:59;;;;;;;;;;;;;;;18.24;45.95;101012.91;5132489;28;19928;-58
2022/12/28 04:59:25;;;;;;;;;;;;;;;18.24;45.89;101012.91;5148010;27;20279;-58
2022/12/28 05:01:50;;;;;;;;;;;;;;;18.23;45.95;101001.06;5153254;27;20302;-58
2022/12/28 05:04:16;;;;;;;;;;;;;;;18.24;45.92;101018.41;5133967;27;19924;-58
2022/12/28 05:06:42;;;;;;;;;;;;;;;18.24;45.96;101021.16;5132440;28;19930;-58
2022/12/28 05:09:07;;;;;;;;;;;;;;;18.24;46.10;101015.66;5132555;28;19923;-58
2022/12/28 05:11:33;;;;;;;;;;;;;;;18.24;46.00;101012.91;5132427;28;20188;-58
2022/12/28 05:13:58;;;;;;;;;;;;;;;18.24;45.95;101012.91;5131747;27;19928;-58
2022/12/28 05:16:25;;;;;;;;;;;;;;;18.23;45.92;101009.31;5132584;28;20332;-58
2022/12/28 05:18:50;;;;;;;;;;;;;;;18.25;45.87;101009.03;5132537;28;19923;-58
2022/12/28 05:21:17;;;;;;;;;;;;;;;18.25;45.98;101006.28;5113940;28;19930;-59
2022/12/28 05:23:43;;;;;;;;;;;;;;;18.23;46.06;101009.31;5131729;27;19931;-58
2022/12/28 05:26:10;;;;;;;;;;;;;;;18.24;45.86;101007.38;5148429;27;19938;-58
2022/12/28 05:28:35;;;;;;;;;;;;;;;18.24;45.75;100999.94;5137030;27;19928;-58
2022/12/28 05:31:02;;;;;;;;;;;;;;;18.23;45.89;100995.53;5132292;28;20248;-58
2022/12/28 05:33:28;;;;;;;;;;;;;;;18.24;46.04;100997.19;5113540;28;19983;-58
2022/12/28 05:35:54;;;;;;;;;;;;;;;18.23;45.81;100995.53;5131975;28;19977;-58
2022/12/28 05:38:20;;;;;;;;;;;;;;;18.25;45.83;101000.78;5132021;28;19931;-58
2022/12/28 05:40:45;;;;;;;;;;;;;;;18.24;45.91;100988.91;5113629;28;19924;-58
2022/12/28 05:43:11;;;;;;;;;;;;;;;18.23;46.09;100995.53;5132707;27;19976;-58
2022/12/28 05:45:36;;;;;;;;;;;;;;;18.24;46.06;100993.59;5152477;27;19924;-59
2022/12/28 05:48:02;;;;;;;;;;;;;;;18.23;45.76;100992.78;5152715;27;19924;-58
2022/12/28 05:50:27;;;;;;;;;;;;;;;18.23;46.07;100990.03;5151724;27;20352;-58
2022/12/28 05:52:53;;;;;;;;;;;;;;;18.25;45.98;100992.50;5152211;27;19953;-58
2022/12/28 05:55:19;;;;;;;;;;;;;;;18.24;45.80;100988.09;5152166;27;19975;-58
2022/12/28 05:57:44;;;;;;;;;;;;;;;18.23;45.78;100973.47;5152150;27;19923;-58
2022/12/28 06:00:10;;;;;;;;;;;;;;;18.23;45.85;100983.69;5151506;27;19923;-58
2022/12/28 06:02:35;;;;;;;;;;;;;;;18.24;45.81;100977.88;5133607;27;20324;-58
2022/12/28 06:05:01;;;;;;;;;;;;;;;18.24;45.77;100988.91;5152126;27;19923;-59
2022/12/28 06:07:27;;;;;;;;;;;;;;;18.24;45.83;100958.59;5152164;27;19931;-58
2022/12/28 06:09:52;;;;;;;;;;;;;;;18.23;45.92;100965.22;5151650;27;19923;-58
2022/12/28 06:12:18;;;;;;;;;;;;;;;18.25;45.75;100962.19;5151915;27;19965;-58
2022/12/28 06:14:43;;;;;;;;;;;;;;;18.23;45.84;100954.19;5151923;27;19923;-59
2022/12/28 06:17:09;;;;;;;;;;;;;;;18.23;45.77;100951.44;5152290;27;19930;-59
2022/12/28 06:19:35;;;;;;;;;;;;;;;18.23;45.85;100956.94;5152240;27;19924;-58
2022/12/28 06:22:00;;;;;;;;;;;;;;;18.23;45.86;100945.91;5152193;27;20260;-58
2022/12/28 06:24:26;;;;;;;;;;;;;;;18.23;45.78;100945.91;5151467;27;19931;-57
2022/12/28 06:26:51;;;;;;;;;;;;;;;18.24;45.98;100943.97;5151277;27;19931;-58
2022/12/28 06:29:17;;;;;;;;;;;;;;;18.23;45.81;100942.34;5151306;27;20259;-58
2022/12/28 06:31:44;;;;;;;;;;;;;;;18.23;45.93;100943.16;5151414;27;20329;-58
2022/12/28 06:34:09;;;;;;;;;;;;;;;18.24;45.76;100949.50;5151414;27;20371;-58
2022/12/28 06:36:36;;;;;;;;;;;;;;;18.24;45.96;100943.97;5151866;27;19930;-58
2022/12/28 06:39:02;;;;;;;;;;;;;;;18.24;45.76;100949.50;5133023;27;19923;-58
2022/12/28 06:41:28;;;;;;;;;;;;;;;18.23;45.83;100943.16;5145335;27;19923;-58
2022/12/28 06:43:53;;;;;;;;;;;;;;;18.24;45.80;100944.81;5145960;27;19943;-58
2022/12/28 06:46:19;;;;;;;;;;;;;;;18.24;45.80;100935.72;5131118;28;19988;-58
2022/12/28 06:48:45;;;;;;;;;;;;;;;18.23;45.72;100945.91;5112474;28;19923;-58
2022/12/28 06:51:12;;;;;;;;;;;;;;;18.24;45.82;100949.50;5131030;28;19930;-58
2022/12/28 06:53:38;;;;;;;;;;;;;;;18.22;45.92;100944.28;5111781;28;19935;-58
2022/12/28 06:56:04;;;;;;;;;;;;;;;18.23;45.72;100945.91;5130577;28;19931;-58
2022/12/28 06:58:30;;;;;;;;;;;;;;;18.23;45.66;100951.44;5120064;27;19934;-58
2022/12/28 07:00:56;;;;;;;;;;;;;;;18.23;45.71;100945.91;5132746;27;19924;-58
2022/12/28 07:03:22;;;;;;;;;;;;;;;18.23;45.76;100945.91;5123142;27;19972;-58
2022/12/28 07:05:48;;;;;;;;;;;;;;;18.23;45.72;100947.84;5130133;28;19973;-58
2022/12/28 07:08:13;;;;;;;;;;;;;;;18.24;45.75;100953.06;5130655;28;20170;-58
2022/12/28 07:10:39;;;;;;;;;;;;;;;18.23;45.93;100956.94;5130623;28;20269;-58
2022/12/28 07:13:05;;;;;;;;;;;;;;;18.22;45.87;100959.94;5112263;28;20015;-59
2022/12/28 07:15:30;;;;;;;;;;;;;;;18.23;45.85;100954.19;5130484;28;19923;-59
2022/12/28 07:17:56;;;;;;;;;;;;;;;18.24;45.74;100955.84;5112114;28;20395;-58
2022/12/28 07:20:22;;;;;;;;;;;;;;;18.23;45.71;100959.69;5130772;28;19931;-59
2022/12/28 07:22:47;;;;;;;;;;;;;;;18.24;45.88;100963.28;5135834;27;19927;-58
2022/12/28 07:25:13;;;;;;;;;;;;;;;18.23;45.82;100953.38;5150787;27;20324;-58
2022/12/28 07:27:38;;;;;;;;;;;;;;;18.24;45.86;100952.25;5150887;27;19939;-58
2022/12/28 07:30:04;;;;;;;;;;;;;;;18.23;45.88;100950.59;5150196;27;19927;-58
2022/12/28 07:32:30;;;;;;;;;;;;;;;18.23;45.67;100958.88;5150899;27;19923;-58
2022/12/28 07:34:55;;;;;;;;;;;;;;;18.23;45.76;100951.44;5150717;27;19923;-58
2022/12/28 07:37:21;;;;;;;;;;;;;;;18.22;45.76;100948.94;5150714;27;20282;-58
2022/12/28 07:39:46;;;;;;;;;;;;;;;18.23;45.66;100939.59;5150474;27;19923;-58
2022/12/28 07:42:12;;;;;;;;;;;;;;;18.23;45.66;100945.09;5137883;27;19938;-59
2022/12/28 07:44:41;;;;;;;;;;;;;;;18.23;45.88;100943.16;5129971;27;19934;-58
2022/12/28 07:47:13;;;;;;;;;;;;;;;18.23;45.66;100936.81;5130254;28;19931;-58
2022/12/28 07:49:39;;;;;;;;;;;;;;;18.24;45.72;100941.22;5130132;28;19965;-59
2022/12/28 07:56:04;;;;;;;;;;;;;;;18.23;45.88;100940.41;5127747;28;19954;-59
2022/12/28 07:58:30;;;;;;;;;;;;;;;18.21;45.91;100931.56;5137746;27;20039;-58
2022/12/28 08:01:03;;;;;;;;;;;;;;;18.23;45.82;100934.91;5132062;27;20374;-58
2022/12/28 08:03:29;;;;;;;;;;;;;;;18.23;45.75;100936.81;5131518;27;19957;-58
2022/12/28 08:05:55;;;;;;;;;;;;;;;18.23;45.76;100931.31;5150043;27;20374;-58
2022/12/28 08:08:20;;;;;;;;;;;;;;;18.23;45.89;100931.31;5150357;27;19930;-58
2022/12/28 08:10:46;;;;;;;;;;;;;;;18.23;45.80;100943.16;5149979;27;19930;-58
2022/12/28 08:13:11;;;;;;;;;;;;;;;18.24;45.93;100930.19;5151558;27;19923;-58
2022/12/28 08:15:37;;;;;;;;;;;;;;;18.23;45.73;100932.13;5153729;27;19934;-58
2022/12/28 08:18:03;;;;;;;;;;;;;;;18.22;45.82;100927.72;5154283;27;19927;-58
2022/12/28 08:20:28;;;;;;;;;;;;;;;18.23;45.75;100939.59;5154077;27;20378;-59
2022/12/28 08:22:54;;;;;;;;;;;;;;;18.23;45.76;100932.13;5134903;27;19943;-58
2022/12/28 08:25:19;;;;;;;;;;;;;;;18.24;45.69;100935.72;5153631;27;19931;-59
2022/12/28 08:27:45;;;;;;;;;;;;;;;18.24;45.78;100927.44;5153825;27;19930;-58
2022/12/28 08:30:11;;;;;;;;;;;;;;;18.24;45.78;100932.97;5153338;27;19923;-58
2022/12/28 08:32:36;;;;;;;;;;;;;;;18.23;45.71;100934.91;5153645;27;19927;-58
2022/12/28 08:35:02;;;;;;;;;;;;;;;18.23;45.63;100934.91;5153402;27;20011;-58
2022/12/28 08:37:27;;;;;;;;;;;;;;;18.22;45.86;100930.50;5153765;27;19931;-58
2022/12/28 08:39:53;;;;;;;;;;;;;;;18.23;45.68;100931.31;5153601;27;19927;-58
2022/12/28 08:42:18;;;;;;;;;;;;;;;18.23;45.82;100939.59;5164736;27;19923;-59
2022/12/28 08:44:44;;;;;;;;;;;;;;;18.21;45.71;100926.06;5132553;27;19923;-58
2022/12/28 08:47:09;;;;;;;;;;;;;;;18.22;45.74;100921.38;5132797;28;19924;-58
2022/12/28 08:49:35;;;;;;;;;;;;;;;18.24;45.68;100927.44;5133098;28;20282;-58
2022/12/28 08:52:01;;;;;;;;;;;;;;;18.23;45.81;100928.56;5132401;28;19950;-58
2022/12/28 08:54:26;;;;;;;;;;;;;;;18.23;45.93;100925.78;5132235;27;19923;-58
2022/12/28 08:56:52;;;;;;;;;;;;;;;18.22;45.72;100922.22;5132846;28;20287;-58
2022/12/28 08:59:18;;;;;;;;;;;;;;;18.23;45.92;100931.31;5147246;27;19923;-58
2022/12/28 09:01:43;;;;;;;;;;;;;;;18.24;45.77;100930.19;5153511;27;20398;-58
2022/12/28 09:04:15;;;;;;;;;;;;;;;18.23;45.85;100928.56;5117357;28;19924;-58
2022/12/28 09:06:40;;;;;;;;;;;;;;;18.22;45.68;100927.72;5114036;28;19974;-58
2022/12/28 09:09:07;;;;;;;;;;;;;;;18.23;45.77;100923.03;5132451;28;19924;-59
2022/12/28 09:11:34;;;;;;;;;;;;;;;18.23;45.83;100925.78;5113607;28;20286;-58
2022/12/28 09:14:00;;;;;;;;;;;;;;;18.24;45.93;100927.44;5131588;27;19927;-58
2022/12/28 09:16:26;;;;;;;;;;;;;;;18.23;45.65;100934.91;5134602;27;19972;-58
2022/12/28 09:18:53;;;;;;;;;;;;;;;18.23;45.75;100934.91;5134592;27;19929;-58
2022/12/28 09:21:18;;;;;;;;;;;;;;;18.24;45.75;100930.19;5134473;27;19951;-59
2022/12/28 09:23:44;;;;;;;;;;;;;;;18.23;45.78;100926.63;5133725;27;19937;-58
2022/12/28 09:26:10;;;;;;;;;;;;;;;18.24;45.67;100930.19;5134269;27;20402;-58
2022/12/28 09:28:36;;;;;;;;;;;;;;;18.24;45.80;100924.69;5133842;27;19927;-58
2022/12/28 09:31:02;;;;;;;;;;;;;;;18.23;45.77;100925.78;5152606;27;20192;-59
2022/12/28 09:33:59;;;;;;;;;;;;;;;18.22;45.73;100933.25;5148350;27;19923;-58
2022/12/28 09:36:34;;;;;;;;;;;;;;;18.23;45.71;100920.28;5105508;28;19928;-58
2022/12/28 09:39:02;;;;;;;;;;;;;;;18.23;45.69;100926.63;5132000;28;19970;-58
2022/12/28 09:41:30;;;;;;;;;;;;;;;18.23;45.90;100923.88;5125956;27;19975;-58
2022/12/28 09:44:03;;;;;;;;;;;;;;;18.23;45.95;100929.38;5143023;27;20283;-58
2022/12/28 09:46:30;;;;;;;;;;;;;;;18.23;45.73;100934.06;5113032;28;19993;-58
2022/12/28 09:48:55;;;;;;;;;;;;;;;18.23;45.68;100921.09;5132017;28;19930;-58
2022/12/28 09:51:23;;;;;;;;;;;;;;;18.23;45.86;100925.78;5131942;28;19924;-58
2022/12/28 09:53:49;;;;;;;;;;;;;;;18.23;45.85;100920.28;5131432;27;19928;-58
2022/12/28 09:56:23;;;;;;;;;;;;;;;18.23;45.64;100920.28;5131629;28;19932;-58
2022/12/28 09:58:49;;;;;;;;;;;;;;;18.23;45.77;100917.53;5123627;27;19927;-58
2022/12/28 10:01:15;;;;;;;;;;;;;;;18.24;45.77;100916.41;5152406;27;19934;-58
2022/12/28 10:03:41;;;;;;;;;;;;;;;18.23;45.72;100914.78;5120755;28;19928;-59
2022/12/28 10:06:09;;;;;;;;;;;;;;;18.23;45.71;100906.50;5131558;28;19924;-59
2022/12/28 10:08:35;;;;;;;;;;;;;;;18.23;45.77;100909.25;5131622;28;19976;-58
2022/12/28 10:11:00;;;;;;;;;;;;;;;18.23;45.65;100909.25;5131591;28;19924;-58
2022/12/28 10:13:28;;;;;;;;;;;;;;;18.24;45.93;100899.88;5126309;27;19929;-58
2022/12/28 10:16:15;;;;;;;;;;;;;;;18.23;45.86;100903.75;5122727;27;19923;-58
2022/12/28 10:18:41;;;;;;;;;;;;;;;18.23;45.72;100901.81;5152139;27;19931;-59
2022/12/28 10:21:06;;;;;;;;;;;;;;;18.23;45.84;100895.47;5151638;27;19923;-58
2022/12/28 10:23:32;;;;;;;;;;;;;;;18.23;45.83;100892.72;5151432;27;19923;-58
2022/12/28 10:25:58;;;;;;;;;;;;;;;18.22;45.76;100897.41;5151729;27;20310;-59
2022/12/28 10:28:24;;;;;;;;;;;;;;;18.23;45.77;100890.78;5151486;27;19922;-58
2022/12/28 10:31:06;;;;;;;;;;;;;;;18.23;45.78;100884.44;5132605;27;19923;-59
2022/12/28 10:33:31;;;;;;;;;;;;;;;18.23;45.85;100887.22;5151483;27;19923;-58
2022/12/28 10:35:57;;;;;;;;;;;;;;;18.23;45.69;100884.44;5151122;27;19923;-58
2022/12/28 10:38:25;;;;;;;;;;;;;;;18.23;45.75;100879.75;5133189;27;19927;-59
2022/12/28 10:41:08;;;;;;;;;;;;;;;18.24;45.73;100880.59;5134031;27;20306;-58
2022/12/28 10:43:34;;;;;;;;;;;;;;;18.23;45.93;100878.94;5148815;27;19962;-58
2022/12/28 10:46:00;;;;;;;;;;;;;;;18.23;45.76;100865.97;5130852;28;19947;-58
2022/12/28 10:48:28;;;;;;;;;;;;;;;18.23;45.93;100876.19;5112488;28;19923;-58
2022/12/28 10:50:54;;;;;;;;;;;;;;;18.24;45.78;100869.56;5130823;28;19972;-58
2022/12/28 10:53:40;;;;;;;;;;;;;;;18.22;45.78;100864.34;5130181;27;19982;-58
2022/12/28 10:56:15;;;;;;;;;;;;;;;18.23;45.84;100865.97;5115313;28;19928;-58
2022/12/28 10:58:43;;;;;;;;;;;;;;;18.23;45.88;100857.72;5140330;27;19933;-58
2022/12/28 11:01:15;;;;;;;;;;;;;;;18.22;45.95;100858.81;5132401;27;19974;-58
2022/12/28 11:03:44;;;;;;;;;;;;;;;18.23;45.78;100862.41;5137842;27;20325;-58
2022/12/28 11:06:14;;;;;;;;;;;;;;;18.23;45.86;100859.63;5130794;28;19931;-58
2022/12/28 11:08:39;;;;;;;;;;;;;;;18.24;45.75;100848.31;5130212;28;19959;-58
2022/12/28 11:11:05;;;;;;;;;;;;;;;18.22;45.84;100853.31;5112323;28;20306;-58
2022/12/28 11:13:31;;;;;;;;;;;;;;;18.24;45.71;100844.75;5126260;27;19923;-58
2022/12/28 11:15:57;;;;;;;;;;;;;;;18.23;45.77;100834.84;5151155;27;20282;-58
2022/12/28 11:18:22;;;;;;;;;;;;;;;18.22;45.76;100838.66;5151373;27;19974;-58
2022/12/28 11:20:49;;;;;;;;;;;;;;;18.23;45.92;100834.84;5151493;27;19927;-58
2022/12/28 11:23:17;;;;;;;;;;;;;;;18.23;45.80;100837.59;5150504;27;19927;-58
2022/12/28 11:25:42;;;;;;;;;;;;;;;18.24;45.73;100830.97;5131867;27;19972;-58
2022/12/28 11:28:12;;;;;;;;;;;;;;;18.24;45.94;100828.22;5151052;27;20279;-58
2022/12/28 11:30:38;;;;;;;;;;;;;;;18.23;45.98;100827.38;5132040;27;20505;-58
2022/12/28 11:33:05;;;;;;;;;;;;;;;18.24;45.68;100822.69;5150831;27;19933;-58
2022/12/28 11:35:32;;;;;;;;;;;;;;;18.24;45.83;100825.44;5150143;27;19930;-58
2022/12/28 11:37:59;;;;;;;;;;;;;;;18.22;45.75;100820.22;5150049;27;19923;-58
2022/12/28 11:40:44;;;;;;;;;;;;;;;18.24;45.74;100817.19;5151003;27;20376;-58
2022/12/28 11:43:30;;;;;;;;;;;;;;;18.23;45.88;100824.63;5135446;27;19923;-59
2022/12/28 11:45:58;;;;;;;;;;;;;;;18.24;45.74;100818.00;5135218;27;20052;-58
2022/12/28 11:48:44;;;;;;;;;;;;;;;18.23;45.88;100821.88;5152783;27;19934;-58
2022/12/28 11:51:14;;;;;;;;;;;;;;;18.23;45.73;100816.38;5139016;27;19927;-58
2022/12/28 11:56:19;;;;;;;;;;;;;;;18.23;45.95;100812.78;5190040;27;19925;-56
2022/12/28 11:58:45;;;;;;;;;;;;;;;18.23;45.78;100808.09;5170185;27;19950;-55
2022/12/28 12:01:29;;;;;;;;;;;;;;;18.23;45.93;100807.25;5189688;27;19969;-56
2022/12/28 12:03:58;;;;;;;;;;;;;;;18.23;45.74;100799.00;5172276;27;19929;-56
2022/12/28 12:06:46;;;;;;;;;;;;;;;18.23;45.69;100801.75;5164781;27;20377;-56
2022/12/28 12:09:37;;;;;;;;;;;;;;;18.23;45.85;100804.50;5152404;27;19927;-56
2022/12/28 12:12:22;;;;;;;;;;;;;;;18.23;45.95;100799.81;5151923;27;19923;-56
2022/12/28 12:14:51;;;;;;;;;;;;;;;18.24;46.02;100795.94;5146363;27;19958;-56
2022/12/28 12:17:20;;;;;;;;;;;;;;;18.23;45.72;100794.31;5168616;27;20359;-56
2022/12/28 12:19:47;;;;;;;;;;;;;;;18.23;45.65;100788.78;5168685;27;20394;-56
2022/12/28 12:22:29;;;;;;;;;;;;;;;18.23;45.59;100791.56;5168631;27;19923;-56
2022/12/28 12:24:57;;;;;;;;;;;;;;;18.22;45.74;100781.63;5149373;27;19966;-56
2022/12/28 12:27:31;;;;;;;;;;;;;;;18.23;45.83;100772.25;5168526;27;19965;-56
2022/12/28 12:30:01;;;;;;;;;;;;;;;18.23;45.76;100775.00;5167643;27;20052;-56
2022/12/28 12:32:43;;;;;;;;;;;;;;;18.23;45.89;100774.19;5149215;27;19923;-56
2022/12/28 12:35:12;;;;;;;;;;;;;;;18.24;45.90;100773.06;5148888;27;19934;-56
2022/12/28 12:37:57;;;;;;;;;;;;;;;18.23;46.01;100758.47;5167746;27;19962;-56
2022/12/28 12:43:26;;;;;;;;;;;;;;;18.23;45.73;100765.91;5194843;27;19933;-56
2022/12/28 12:46:11;;;;;;;;;;;;;;;18.23;45.75;100760.41;5132424;27;19923;-56
2022/12/28 12:48:57;;;;;;;;;;;;;;;18.23;45.77;100744.69;5132637;27;19923;-56
2022/12/28 12:51:26;;;;;;;;;;;;;;;18.23;45.86;100743.88;5132453;27;19980;-56
2022/12/28 12:53:57;;;;;;;;;;;;;;;18.23;45.95;100746.63;5161580;27;19926;-56
2022/12/28 12:56:35;;;;;;;;;;;;;;;18.23;45.78;100727.31;5168716;27;19930;-56
2022/12/28 12:59:10;;;;;;;;;;;;;;;18.23;45.81;100711.63;5168389;27;19976;-55
2022/12/28 13:01:46;;;;;;;;;;;;;;;18.24;45.83;100706.91;5168727;27;19963;-56
2022/12/28 13:04:13;;;;;;;;;;;;;;;18.23;46.07;100702.53;5150798;27;19927;-56
2022/12/28 13:06:40;;;;;;;;;;;;;;;18.23;45.78;100700.59;5147789;27;20386;-56
2022/12/28 13:09:08;;;;;;;;;;;;;;;18.23;45.77;100702.53;5147853;27;19927;-56
2022/12/28 13:11:34;;;;;;;;;;;;;;;18.23;45.66;100713.56;5129445;27;19934;-56
2022/12/28 13:14:00;;;;;;;;;;;;;;;18.24;45.71;100709.69;5144457;27;19965;-56